sensor_id;sensor_type;location;lat;lon;timestamp;P1;durP1;ratioP1;P2;durP2;ratioP2
16320;SDS011;8269;50.990;4.494;2022-09-09T00:06:28;4.70;;;2.60;;
16320;SDS011;8269;50.990;4.494;2022-09-09T00:12:02;6.03;;;2.40;;
16320;SDS011;8269;50.990;4.494;2022-09-09T00:14:51;8.48;;;2.80;;
16320;SDS011;8269;50.990;4.494;2022-09-09T00:20:19;5.17;;;2.50;;
16320;SDS011;8269;50.990;4.494;2022-09-09T00:23:19;7.13;;;2.60;;
16320;SDS011;8269;50.990;4.494;2022-09-09T00:25:57;6.45;;;2.67;;
16320;SDS011;8269;50.990;4.494;2022-09-09T00:28:31;5.03;;;2.65;;
16320;SDS011;8269;50.990;4.494;2022-09-09T00:31:23;6.43;;;2.35;;
16320;SDS011;8269;50.990;4.494;2022-09-09T00:33:50;5.50;;;2.10;;
16320;SDS011;8269;50.990;4.494;2022-09-09T00:36:18;5.97;;;2.20;;
16320;SDS011;8269;50.990;4.494;2022-09-09T00:38:55;7.30;;;2.30;;
16320;SDS011;8269;50.990;4.494;2022-09-09T00:43:58;6.15;;;2.35;;
16320;SDS011;8269;50.990;4.494;2022-09-09T00:57:30;5.88;;;2.03;;
16320;SDS011;8269;50.990;4.494;2022-09-09T01:00:17;3.63;;;2.30;;
16320;SDS011;8269;50.990;4.494;2022-09-09T01:06:11;5.97;;;2.05;;
16320;SDS011;8269;50.990;4.494;2022-09-09T01:11:49;8.50;;;2.55;;
16320;SDS011;8269;50.990;4.494;2022-09-09T01:17:45;5.82;;;2.30;;
16320;SDS011;8269;50.990;4.494;2022-09-09T01:27:49;4.85;;;2.13;;
16320;SDS011;8269;50.990;4.494;2022-09-09T01:30:19;6.60;;;2.72;;
16320;SDS011;8269;50.990;4.494;2022-09-09T01:32:47;7.10;;;2.50;;
16320;SDS011;8269;50.990;4.494;2022-09-09T01:37:51;8.60;;;2.70;;
16320;SDS011;8269;50.990;4.494;2022-09-09T01:40:17;6.13;;;2.40;;
16320;SDS011;8269;50.990;4.494;2022-09-09T01:42:43;5.90;;;2.10;;
16320;SDS011;8269;50.990;4.494;2022-09-09T01:45:08;7.18;;;2.53;;
16320;SDS011;8269;50.990;4.494;2022-09-09T01:47:35;6.85;;;2.20;;
16320;SDS011;8269;50.990;4.494;2022-09-09T01:50:01;6.15;;;2.22;;
16320;SDS011;8269;50.990;4.494;2022-09-09T01:52:28;5.20;;;2.20;;
16320;SDS011;8269;50.990;4.494;2022-09-09T01:54:54;5.65;;;2.28;;
16320;SDS011;8269;50.990;4.494;2022-09-09T01:57:21;7.25;;;2.30;;
16320;SDS011;8269;50.990;4.494;2022-09-09T02:05:15;5.15;;;2.20;;
16320;SDS011;8269;50.990;4.494;2022-09-09T02:08:06;9.77;;;2.30;;
16320;SDS011;8269;50.990;4.494;2022-09-09T02:13:14;8.13;;;2.33;;
16320;SDS011;8269;50.990;4.494;2022-09-09T02:18:09;7.30;;;2.30;;
16320;SDS011;8269;50.990;4.494;2022-09-09T02:20:37;6.63;;;2.75;;
16320;SDS011;8269;50.990;4.494;2022-09-09T02:23:04;8.82;;;2.65;;
16320;SDS011;8269;50.990;4.494;2022-09-09T02:25:32;8.10;;;2.97;;
16320;SDS011;8269;50.990;4.494;2022-09-09T02:28:01;7.80;;;2.90;;
16320;SDS011;8269;50.990;4.494;2022-09-09T02:30:29;8.27;;;3.17;;
16320;SDS011;8269;50.990;4.494;2022-09-09T02:32:57;6.55;;;2.65;;
16320;SDS011;8269;50.990;4.494;2022-09-09T02:35:27;7.93;;;2.65;;
16320;SDS011;8269;50.990;4.494;2022-09-09T02:37:56;9.23;;;3.07;;
16320;SDS011;8269;50.990;4.494;2022-09-09T02:40:24;10.70;;;3.10;;
16320;SDS011;8269;50.990;4.494;2022-09-09T02:42:50;12.77;;;3.37;;
16320;SDS011;8269;50.990;4.494;2022-09-09T02:45:16;9.80;;;3.27;;
16320;SDS011;8269;50.990;4.494;2022-09-09T02:47:50;11.05;;;3.03;;
16320;SDS011;8269;50.990;4.494;2022-09-09T02:50:17;11.60;;;3.28;;
16320;SDS011;8269;50.990;4.494;2022-09-09T02:55:42;8.60;;;2.90;;
16320;SDS011;8269;50.990;4.494;2022-09-09T02:58:19;11.05;;;4.03;;
16320;SDS011;8269;50.990;4.494;2022-09-09T03:00:46;12.00;;;3.25;;
16320;SDS011;8269;50.990;4.494;2022-09-09T03:03:13;12.57;;;3.22;;
16320;SDS011;8269;50.990;4.494;2022-09-09T03:05:41;9.38;;;3.22;;
16320;SDS011;8269;50.990;4.494;2022-09-09T03:08:07;11.77;;;3.47;;
16320;SDS011;8269;50.990;4.494;2022-09-09T03:10:33;11.25;;;3.42;;
16320;SDS011;8269;50.990;4.494;2022-09-09T03:12:59;9.32;;;3.63;;
16320;SDS011;8269;50.990;4.494;2022-09-09T03:15:26;8.15;;;3.47;;
16320;SDS011;8269;50.990;4.494;2022-09-09T03:17:56;10.27;;;4.15;;
16320;SDS011;8269;50.990;4.494;2022-09-09T03:20:25;8.98;;;3.15;;
16320;SDS011;8269;50.990;4.494;2022-09-09T03:22:52;17.00;;;4.20;;
16320;SDS011;8269;50.990;4.494;2022-09-09T03:25:18;11.48;;;3.08;;
16320;SDS011;8269;50.990;4.494;2022-09-09T03:27:44;13.03;;;3.83;;
16320;SDS011;8269;50.990;4.494;2022-09-09T03:30:10;13.93;;;3.90;;
16320;SDS011;8269;50.990;4.494;2022-09-09T03:32:36;11.77;;;3.58;;
16320;SDS011;8269;50.990;4.494;2022-09-09T03:35:02;9.10;;;3.67;;
16320;SDS011;8269;50.990;4.494;2022-09-09T03:37:28;10.85;;;3.63;;
16320;SDS011;8269;50.990;4.494;2022-09-09T03:39:54;16.83;;;3.80;;
16320;SDS011;8269;50.990;4.494;2022-09-09T03:42:19;14.27;;;3.28;;
16320;SDS011;8269;50.990;4.494;2022-09-09T03:44:46;10.52;;;3.33;;
16320;SDS011;8269;50.990;4.494;2022-09-09T03:47:16;9.18;;;3.25;;
16320;SDS011;8269;50.990;4.494;2022-09-09T03:49:43;12.70;;;3.55;;
16320;SDS011;8269;50.990;4.494;2022-09-09T03:52:09;12.73;;;3.22;;
16320;SDS011;8269;50.990;4.494;2022-09-09T03:54:35;15.13;;;3.67;;
16320;SDS011;8269;50.990;4.494;2022-09-09T03:57:01;11.20;;;3.80;;
16320;SDS011;8269;50.990;4.494;2022-09-09T03:59:27;13.40;;;3.50;;
16320;SDS011;8269;50.990;4.494;2022-09-09T04:01:53;10.85;;;3.30;;
16320;SDS011;8269;50.990;4.494;2022-09-09T04:04:19;12.23;;;3.58;;
16320;SDS011;8269;50.990;4.494;2022-09-09T04:06:45;14.85;;;3.92;;
16320;SDS011;8269;50.990;4.494;2022-09-09T04:09:13;10.57;;;3.47;;
16320;SDS011;8269;50.990;4.494;2022-09-09T04:11:39;12.40;;;4.18;;
16320;SDS011;8269;50.990;4.494;2022-09-09T04:14:04;13.53;;;3.70;;
16320;SDS011;8269;50.990;4.494;2022-09-09T04:16:31;11.25;;;3.25;;
16320;SDS011;8269;50.990;4.494;2022-09-09T04:18:57;12.07;;;3.58;;
16320;SDS011;8269;50.990;4.494;2022-09-09T04:21:24;12.20;;;3.88;;
16320;SDS011;8269;50.990;4.494;2022-09-09T04:23:50;12.52;;;3.78;;
16320;SDS011;8269;50.990;4.494;2022-09-09T04:26:16;14.10;;;3.78;;
16320;SDS011;8269;50.990;4.494;2022-09-09T04:28:42;12.70;;;3.85;;
16320;SDS011;8269;50.990;4.494;2022-09-09T04:31:09;10.80;;;3.40;;
16320;SDS011;8269;50.990;4.494;2022-09-09T04:33:39;15.33;;;4.30;;
16320;SDS011;8269;50.990;4.494;2022-09-09T04:36:05;11.10;;;4.00;;
16320;SDS011;8269;50.990;4.494;2022-09-09T04:38:31;11.18;;;3.55;;
16320;SDS011;8269;50.990;4.494;2022-09-09T04:40:57;13.60;;;3.63;;
16320;SDS011;8269;50.990;4.494;2022-09-09T04:43:23;9.70;;;3.55;;
16320;SDS011;8269;50.990;4.494;2022-09-09T04:45:50;9.95;;;3.22;;
16320;SDS011;8269;50.990;4.494;2022-09-09T04:48:17;15.45;;;3.95;;
16320;SDS011;8269;50.990;4.494;2022-09-09T04:50:43;12.37;;;3.90;;
16320;SDS011;8269;50.990;4.494;2022-09-09T04:53:18;11.48;;;3.30;;
16320;SDS011;8269;50.990;4.494;2022-09-09T04:55:43;12.88;;;4.00;;
16320;SDS011;8269;50.990;4.494;2022-09-09T04:58:09;12.05;;;4.05;;
16320;SDS011;8269;50.990;4.494;2022-09-09T05:00:35;16.08;;;4.10;;
16320;SDS011;8269;50.990;4.494;2022-09-09T05:03:04;11.23;;;3.97;;
16320;SDS011;8269;50.990;4.494;2022-09-09T05:05:31;10.93;;;3.97;;
16320;SDS011;8269;50.990;4.494;2022-09-09T05:08:06;10.90;;;3.97;;
16320;SDS011;8269;50.990;4.494;2022-09-09T05:10:33;18.02;;;4.85;;
16320;SDS011;8269;50.990;4.494;2022-09-09T05:13:01;15.10;;;4.97;;
16320;SDS011;8269;50.990;4.494;2022-09-09T05:15:27;13.13;;;4.30;;
16320;SDS011;8269;50.990;4.494;2022-09-09T05:17:52;13.73;;;4.00;;
16320;SDS011;8269;50.990;4.494;2022-09-09T05:20:23;9.27;;;3.85;;
16320;SDS011;8269;50.990;4.494;2022-09-09T05:22:52;14.55;;;4.40;;
16320;SDS011;8269;50.990;4.494;2022-09-09T05:25:19;14.23;;;4.53;;
16320;SDS011;8269;50.990;4.494;2022-09-09T05:27:44;13.15;;;4.45;;
16320;SDS011;8269;50.990;4.494;2022-09-09T05:30:10;13.00;;;4.40;;
16320;SDS011;8269;50.990;4.494;2022-09-09T05:32:36;16.88;;;5.07;;
16320;SDS011;8269;50.990;4.494;2022-09-09T05:35:02;12.15;;;4.20;;
16320;SDS011;8269;50.990;4.494;2022-09-09T05:37:30;14.27;;;5.00;;
16320;SDS011;8269;50.990;4.494;2022-09-09T05:39:56;13.68;;;4.13;;
16320;SDS011;8269;50.990;4.494;2022-09-09T05:42:22;17.40;;;4.10;;
16320;SDS011;8269;50.990;4.494;2022-09-09T05:44:48;11.65;;;3.88;;
16320;SDS011;8269;50.990;4.494;2022-09-09T05:47:15;13.88;;;3.88;;
16320;SDS011;8269;50.990;4.494;2022-09-09T05:49:42;13.93;;;4.20;;
16320;SDS011;8269;50.990;4.494;2022-09-09T05:52:08;12.90;;;4.05;;
16320;SDS011;8269;50.990;4.494;2022-09-09T05:54:34;16.73;;;4.55;;
16320;SDS011;8269;50.990;4.494;2022-09-09T05:57:02;12.55;;;5.03;;
16320;SDS011;8269;50.990;4.494;2022-09-09T05:59:28;14.15;;;5.18;;
16320;SDS011;8269;50.990;4.494;2022-09-09T06:01:54;15.50;;;3.85;;
16320;SDS011;8269;50.990;4.494;2022-09-09T06:04:20;12.50;;;5.18;;
16320;SDS011;8269;50.990;4.494;2022-09-09T06:06:49;15.15;;;4.13;;
16320;SDS011;8269;50.990;4.494;2022-09-09T06:09:16;10.90;;;4.13;;
16320;SDS011;8269;50.990;4.494;2022-09-09T06:11:42;15.32;;;5.05;;
16320;SDS011;8269;50.990;4.494;2022-09-09T06:14:08;12.80;;;4.00;;
16320;SDS011;8269;50.990;4.494;2022-09-09T06:16:34;14.20;;;4.78;;
16320;SDS011;8269;50.990;4.494;2022-09-09T06:19:02;16.60;;;4.45;;
16320;SDS011;8269;50.990;4.494;2022-09-09T06:21:32;14.35;;;4.03;;
16320;SDS011;8269;50.990;4.494;2022-09-09T06:24:01;15.70;;;4.60;;
16320;SDS011;8269;50.990;4.494;2022-09-09T06:26:29;12.45;;;5.03;;
16320;SDS011;8269;50.990;4.494;2022-09-09T06:29:05;13.45;;;4.35;;
16320;SDS011;8269;50.990;4.494;2022-09-09T06:31:33;11.07;;;4.63;;
16320;SDS011;8269;50.990;4.494;2022-09-09T06:34:00;15.43;;;4.85;;
16320;SDS011;8269;50.990;4.494;2022-09-09T06:36:28;13.00;;;3.10;;
16320;SDS011;8269;50.990;4.494;2022-09-09T06:38:56;15.85;;;5.53;;
16320;SDS011;8269;50.990;4.494;2022-09-09T06:41:29;10.45;;;4.80;;
16320;SDS011;8269;50.990;4.494;2022-09-09T06:43:56;11.80;;;3.70;;
16320;SDS011;8269;50.990;4.494;2022-09-09T06:46:24;13.68;;;3.30;;
16320;SDS011;8269;50.990;4.494;2022-09-09T06:48:56;13.15;;;3.60;;
16320;SDS011;8269;50.990;4.494;2022-09-09T06:51:24;10.98;;;3.90;;
16320;SDS011;8269;50.990;4.494;2022-09-09T06:53:53;14.63;;;3.47;;
16320;SDS011;8269;50.990;4.494;2022-09-09T06:56:27;10.93;;;3.95;;
16320;SDS011;8269;50.990;4.494;2022-09-09T06:58:59;15.60;;;4.65;;
16320;SDS011;8269;50.990;4.494;2022-09-09T07:01:29;11.43;;;3.40;;
16320;SDS011;8269;50.990;4.494;2022-09-09T07:03:57;11.40;;;4.22;;
16320;SDS011;8269;50.990;4.494;2022-09-09T07:06:28;15.43;;;5.35;;
16320;SDS011;8269;50.990;4.494;2022-09-09T07:08:56;11.65;;;4.30;;
16320;SDS011;8269;50.990;4.494;2022-09-09T07:11:30;14.13;;;3.78;;
16320;SDS011;8269;50.990;4.494;2022-09-09T07:13:57;10.95;;;4.47;;
16320;SDS011;8269;50.990;4.494;2022-09-09T07:16:24;12.75;;;4.10;;
16320;SDS011;8269;50.990;4.494;2022-09-09T07:18:53;12.05;;;4.78;;
16320;SDS011;8269;50.990;4.494;2022-09-09T07:21:26;11.75;;;3.47;;
16320;SDS011;8269;50.990;4.494;2022-09-09T07:23:53;12.82;;;3.08;;
16320;SDS011;8269;50.990;4.494;2022-09-09T07:26:20;8.77;;;3.33;;
16320;SDS011;8269;50.990;4.494;2022-09-09T07:28:48;8.88;;;2.70;;
16320;SDS011;8269;50.990;4.494;2022-09-09T07:31:15;16.05;;;3.38;;
16320;SDS011;8269;50.990;4.494;2022-09-09T07:33:42;12.40;;;3.22;;
16320;SDS011;8269;50.990;4.494;2022-09-09T07:36:14;14.18;;;3.10;;
16320;SDS011;8269;50.990;4.494;2022-09-09T07:38:46;13.00;;;2.85;;
16320;SDS011;8269;50.990;4.494;2022-09-09T07:41:20;11.57;;;3.10;;
16320;SDS011;8269;50.990;4.494;2022-09-09T07:43:48;10.48;;;3.00;;
16320;SDS011;8269;50.990;4.494;2022-09-09T07:46:15;11.23;;;3.00;;
16320;SDS011;8269;50.990;4.494;2022-09-09T07:48:48;12.68;;;3.00;;
16320;SDS011;8269;50.990;4.494;2022-09-09T07:51:20;12.57;;;2.97;;
16320;SDS011;8269;50.990;4.494;2022-09-09T07:53:51;10.80;;;2.60;;
16320;SDS011;8269;50.990;4.494;2022-09-09T07:56:18;13.40;;;3.25;;
16320;SDS011;8269;50.990;4.494;2022-09-09T07:58:47;12.77;;;2.63;;
16320;SDS011;8269;50.990;4.494;2022-09-09T08:01:30;11.27;;;2.67;;
16320;SDS011;8269;50.990;4.494;2022-09-09T08:06:29;12.82;;;3.45;;
16320;SDS011;8269;50.990;4.494;2022-09-09T08:09:00;12.93;;;3.28;;
16320;SDS011;8269;50.990;4.494;2022-09-09T08:11:26;9.63;;;3.05;;
16320;SDS011;8269;50.990;4.494;2022-09-09T08:13:55;7.45;;;2.83;;
16320;SDS011;8269;50.990;4.494;2022-09-09T08:16:22;8.25;;;2.10;;
16320;SDS011;8269;50.990;4.494;2022-09-09T08:18:50;11.18;;;2.90;;
16320;SDS011;8269;50.990;4.494;2022-09-09T08:21:18;9.38;;;2.65;;
16320;SDS011;8269;50.990;4.494;2022-09-09T08:23:46;8.98;;;2.63;;
16320;SDS011;8269;50.990;4.494;2022-09-09T08:26:17;7.18;;;2.45;;
16320;SDS011;8269;50.990;4.494;2022-09-09T08:28:57;10.90;;;2.60;;
16320;SDS011;8269;50.990;4.494;2022-09-09T08:31:25;11.25;;;2.85;;
16320;SDS011;8269;50.990;4.494;2022-09-09T08:33:52;8.25;;;2.40;;
16320;SDS011;8269;50.990;4.494;2022-09-09T08:36:21;8.68;;;2.53;;
16320;SDS011;8269;50.990;4.494;2022-09-09T08:38:53;9.98;;;2.67;;
16320;SDS011;8269;50.990;4.494;2022-09-09T08:54:46;10.07;;;2.92;;
16320;SDS011;8269;50.990;4.494;2022-09-09T08:57:18;10.68;;;3.00;;
16320;SDS011;8269;50.990;4.494;2022-09-09T08:59:51;11.70;;;2.72;;
16320;SDS011;8269;50.990;4.494;2022-09-09T09:07:59;10.38;;;2.90;;
16320;SDS011;8269;50.990;4.494;2022-09-09T09:13:45;14.35;;;3.70;;
16320;SDS011;8269;50.990;4.494;2022-09-09T09:19:17;11.68;;;3.15;;
16320;SDS011;8269;50.990;4.494;2022-09-09T09:27:04;11.85;;;2.97;;
16320;SDS011;8269;50.990;4.494;2022-09-09T09:29:40;14.40;;;3.17;;
16320;SDS011;8269;50.990;4.494;2022-09-09T09:32:09;11.13;;;3.03;;
16320;SDS011;8269;50.990;4.494;2022-09-09T09:34:38;12.52;;;3.38;;
16320;SDS011;8269;50.990;4.494;2022-09-09T09:37:16;11.05;;;2.97;;
16320;SDS011;8269;50.990;4.494;2022-09-09T09:39:48;10.65;;;2.65;;
16320;SDS011;8269;50.990;4.494;2022-09-09T09:42:16;11.63;;;3.25;;
16320;SDS011;8269;50.990;4.494;2022-09-09T09:44:43;10.45;;;2.60;;
16320;SDS011;8269;50.990;4.494;2022-09-09T09:47:19;9.07;;;2.63;;
16320;SDS011;8269;50.990;4.494;2022-09-09T09:49:55;8.43;;;2.50;;
16320;SDS011;8269;50.990;4.494;2022-09-09T09:52:26;8.55;;;2.83;;
16320;SDS011;8269;50.990;4.494;2022-09-09T09:54:55;11.70;;;3.03;;
16320;SDS011;8269;50.990;4.494;2022-09-09T09:57:24;8.63;;;2.95;;
16320;SDS011;8269;50.990;4.494;2022-09-09T10:00:11;8.93;;;2.97;;
16320;SDS011;8269;50.990;4.494;2022-09-09T10:02:48;7.88;;;2.83;;
16320;SDS011;8269;50.990;4.494;2022-09-09T10:05:27;9.27;;;2.90;;
16320;SDS011;8269;50.990;4.494;2022-09-09T10:08:14;9.40;;;2.90;;
16320;SDS011;8269;50.990;4.494;2022-09-09T10:16:49;6.13;;;2.30;;
16320;SDS011;8269;50.990;4.494;2022-09-09T10:19:46;10.13;;;2.92;;
16320;SDS011;8269;50.990;4.494;2022-09-09T10:22:38;9.70;;;2.53;;
16320;SDS011;8269;50.990;4.494;2022-09-09T10:31:09;9.80;;;2.50;;
16320;SDS011;8269;50.990;4.494;2022-09-09T10:36:47;7.60;;;2.58;;
16320;SDS011;8269;50.990;4.494;2022-09-09T10:42:15;7.90;;;2.72;;
16320;SDS011;8269;50.990;4.494;2022-09-09T10:45:07;8.27;;;2.60;;
16320;SDS011;8269;50.990;4.494;2022-09-09T10:47:47;8.55;;;2.28;;
16320;SDS011;8269;50.990;4.494;2022-09-09T10:50:45;7.18;;;2.38;;
16320;SDS011;8269;50.990;4.494;2022-09-09T10:56:08;10.02;;;2.50;;
16320;SDS011;8269;50.990;4.494;2022-09-09T11:01:22;8.32;;;2.67;;
16320;SDS011;8269;50.990;4.494;2022-09-09T11:03:57;8.27;;;2.58;;
16320;SDS011;8269;50.990;4.494;2022-09-09T11:06:30;8.05;;;2.20;;
16320;SDS011;8269;50.990;4.494;2022-09-09T11:09:03;7.25;;;2.42;;
16320;SDS011;8269;50.990;4.494;2022-09-09T11:11:39;9.77;;;2.78;;
16320;SDS011;8269;50.990;4.494;2022-09-09T11:14:18;8.48;;;2.72;;
16320;SDS011;8269;50.990;4.494;2022-09-09T11:17:02;9.07;;;2.67;;
16320;SDS011;8269;50.990;4.494;2022-09-09T11:22:06;8.57;;;2.30;;
16320;SDS011;8269;50.990;4.494;2022-09-09T11:38:46;6.40;;;2.00;;
16320;SDS011;8269;50.990;4.494;2022-09-09T11:41:13;10.20;;;2.33;;
16320;SDS011;8269;50.990;4.494;2022-09-09T11:43:43;5.70;;;1.88;;
16320;SDS011;8269;50.990;4.494;2022-09-09T11:46:16;8.70;;;2.13;;
16320;SDS011;8269;50.990;4.494;2022-09-09T11:49:02;5.47;;;1.75;;
16320;SDS011;8269;50.990;4.494;2022-09-09T11:51:31;8.13;;;2.30;;
16320;SDS011;8269;50.990;4.494;2022-09-09T11:56:46;5.80;;;1.88;;
16320;SDS011;8269;50.990;4.494;2022-09-09T11:59:22;7.95;;;1.90;;
16320;SDS011;8269;50.990;4.494;2022-09-09T12:04:38;8.65;;;2.00;;
16320;SDS011;8269;50.990;4.494;2022-09-09T12:17:19;8.82;;;2.00;;
16320;SDS011;8269;50.990;4.494;2022-09-09T12:19:47;7.97;;;2.33;;
16320;SDS011;8269;50.990;4.494;2022-09-09T12:25:33;7.63;;;2.10;;
16320;SDS011;8269;50.990;4.494;2022-09-09T12:28:23;11.27;;;2.42;;
16320;SDS011;8269;50.990;4.494;2022-09-09T12:31:14;4.10;;;1.65;;
16320;SDS011;8269;50.990;4.494;2022-09-09T12:33:47;9.23;;;2.13;;
16320;SDS011;8269;50.990;4.494;2022-09-09T12:36:31;6.13;;;2.15;;
16320;SDS011;8269;50.990;4.494;2022-09-09T12:38:58;6.95;;;2.15;;
16320;SDS011;8269;50.990;4.494;2022-09-09T12:41:51;9.60;;;2.00;;
16320;SDS011;8269;50.990;4.494;2022-09-09T12:44:24;7.00;;;2.10;;
16320;SDS011;8269;50.990;4.494;2022-09-09T12:46:52;6.18;;;2.17;;
16320;SDS011;8269;50.990;4.494;2022-09-09T12:49:32;7.60;;;2.10;;
16320;SDS011;8269;50.990;4.494;2022-09-09T12:52:48;8.05;;;2.42;;
16320;SDS011;8269;50.990;4.494;2022-09-09T12:55:02;10.27;;;2.10;;
16320;SDS011;8269;50.990;4.494;2022-09-09T12:57:34;6.90;;;1.92;;
16320;SDS011;8269;50.990;4.494;2022-09-09T13:00:14;6.60;;;1.80;;
16320;SDS011;8269;50.990;4.494;2022-09-09T13:02:45;7.05;;;1.80;;
16320;SDS011;8269;50.990;4.494;2022-09-09T13:08:04;7.95;;;1.95;;
16320;SDS011;8269;50.990;4.494;2022-09-09T13:10:50;6.82;;;2.10;;
16320;SDS011;8269;50.990;4.494;2022-09-09T13:16:03;3.70;;;1.63;;
16320;SDS011;8269;50.990;4.494;2022-09-09T13:18:33;5.43;;;1.85;;
16320;SDS011;8269;50.990;4.494;2022-09-09T13:21:00;5.70;;;1.70;;
16320;SDS011;8269;50.990;4.494;2022-09-09T13:23:30;6.35;;;1.65;;
16320;SDS011;8269;50.990;4.494;2022-09-09T13:26:03;5.15;;;1.67;;
16320;SDS011;8269;50.990;4.494;2022-09-09T13:28:31;5.55;;;1.90;;
16320;SDS011;8269;50.990;4.494;2022-09-09T13:33:32;6.38;;;2.63;;
16320;SDS011;8269;50.990;4.494;2022-09-09T13:36:06;5.70;;;2.00;;
16320;SDS011;8269;50.990;4.494;2022-09-09T13:39:13;5.88;;;2.00;;
16320;SDS011;8269;50.990;4.494;2022-09-09T13:41:42;5.13;;;1.90;;
16320;SDS011;8269;50.990;4.494;2022-09-09T13:44:21;10.27;;;1.80;;
16320;SDS011;8269;50.990;4.494;2022-09-09T13:47:03;6.07;;;1.73;;
16320;SDS011;8269;50.990;4.494;2022-09-09T13:49:32;5.07;;;1.70;;
16320;SDS011;8269;50.990;4.494;2022-09-09T13:52:14;5.45;;;1.80;;
16320;SDS011;8269;50.990;4.494;2022-09-09T13:54:46;5.47;;;1.70;;
16320;SDS011;8269;50.990;4.494;2022-09-09T13:57:19;4.63;;;1.70;;
16320;SDS011;8269;50.990;4.494;2022-09-09T13:59:46;8.77;;;2.10;;
16320;SDS011;8269;50.990;4.494;2022-09-09T14:02:13;4.05;;;1.58;;
16320;SDS011;8269;50.990;4.494;2022-09-09T14:04:39;6.10;;;1.90;;
16320;SDS011;8269;50.990;4.494;2022-09-09T14:07:07;5.47;;;1.85;;
16320;SDS011;8269;50.990;4.494;2022-09-09T14:09:37;6.82;;;1.77;;
16320;SDS011;8269;50.990;4.494;2022-09-09T14:12:03;6.22;;;1.98;;
16320;SDS011;8269;50.990;4.494;2022-09-09T14:14:29;5.38;;;1.67;;
16320;SDS011;8269;50.990;4.494;2022-09-09T14:16:55;5.72;;;1.52;;
16320;SDS011;8269;50.990;4.494;2022-09-09T14:19:20;6.38;;;2.42;;
16320;SDS011;8269;50.990;4.494;2022-09-09T14:21:46;4.82;;;1.90;;
16320;SDS011;8269;50.990;4.494;2022-09-09T14:24:12;5.97;;;1.90;;
16320;SDS011;8269;50.990;4.494;2022-09-09T14:26:37;4.82;;;1.90;;
16320;SDS011;8269;50.990;4.494;2022-09-09T14:29:03;6.85;;;1.60;;
16320;SDS011;8269;50.990;4.494;2022-09-09T14:31:29;5.90;;;1.90;;
16320;SDS011;8269;50.990;4.494;2022-09-09T14:33:54;4.43;;;1.60;;
16320;SDS011;8269;50.990;4.494;2022-09-09T14:36:20;5.43;;;1.73;;
16320;SDS011;8269;50.990;4.494;2022-09-09T14:38:46;5.63;;;1.70;;
16320;SDS011;8269;50.990;4.494;2022-09-09T14:41:13;4.15;;;1.70;;
16320;SDS011;8269;50.990;4.494;2022-09-09T14:43:44;3.83;;;1.65;;
16320;SDS011;8269;50.990;4.494;2022-09-09T14:46:12;5.88;;;2.00;;
16320;SDS011;8269;50.990;4.494;2022-09-09T14:48:40;5.35;;;1.60;;
16320;SDS011;8269;50.990;4.494;2022-09-09T14:51:16;7.20;;;1.75;;
16320;SDS011;8269;50.990;4.494;2022-09-09T14:53:44;5.90;;;1.88;;
16320;SDS011;8269;50.990;4.494;2022-09-09T14:56:12;6.78;;;2.17;;
16320;SDS011;8269;50.990;4.494;2022-09-09T14:58:42;9.55;;;2.50;;
16320;SDS011;8269;50.990;4.494;2022-09-09T15:01:13;7.05;;;2.00;;
16320;SDS011;8269;50.990;4.494;2022-09-09T15:03:40;5.75;;;1.83;;
16320;SDS011;8269;50.990;4.494;2022-09-09T15:06:12;5.63;;;2.03;;
16320;SDS011;8269;50.990;4.494;2022-09-09T15:08:40;5.47;;;2.00;;
16320;SDS011;8269;50.990;4.494;2022-09-09T15:11:09;5.32;;;2.30;;
16320;SDS011;8269;50.990;4.494;2022-09-09T15:13:37;6.22;;;2.00;;
16320;SDS011;8269;50.990;4.494;2022-09-09T15:16:07;7.93;;;2.13;;
16320;SDS011;8269;50.990;4.494;2022-09-09T15:18:38;5.55;;;1.95;;
16320;SDS011;8269;50.990;4.494;2022-09-09T15:21:14;4.43;;;1.50;;
16320;SDS011;8269;50.990;4.494;2022-09-09T15:23:42;4.28;;;1.58;;
16320;SDS011;8269;50.990;4.494;2022-09-09T15:26:08;5.10;;;1.73;;
16320;SDS011;8269;50.990;4.494;2022-09-09T15:28:35;5.75;;;1.55;;
16320;SDS011;8269;50.990;4.494;2022-09-09T15:31:22;6.07;;;1.77;;
16320;SDS011;8269;50.990;4.494;2022-09-09T15:33:49;4.68;;;1.80;;
16320;SDS011;8269;50.990;4.494;2022-09-09T15:36:18;5.88;;;1.60;;
16320;SDS011;8269;50.990;4.494;2022-09-09T15:38:48;6.38;;;2.00;;
16320;SDS011;8269;50.990;4.494;2022-09-09T15:41:15;6.80;;;1.85;;
16320;SDS011;8269;50.990;4.494;2022-09-09T15:43:45;7.70;;;2.15;;
16320;SDS011;8269;50.990;4.494;2022-09-09T15:46:28;5.95;;;2.00;;
16320;SDS011;8269;50.990;4.494;2022-09-09T15:49:04;5.97;;;2.05;;
16320;SDS011;8269;50.990;4.494;2022-09-09T15:51:35;6.65;;;2.15;;
16320;SDS011;8269;50.990;4.494;2022-09-09T15:54:02;7.80;;;2.03;;
16320;SDS011;8269;50.990;4.494;2022-09-09T15:56:30;8.70;;;2.03;;
16320;SDS011;8269;50.990;4.494;2022-09-09T15:58:57;6.20;;;2.20;;
16320;SDS011;8269;50.990;4.494;2022-09-09T16:01:24;6.57;;;2.63;;
16320;SDS011;8269;50.990;4.494;2022-09-09T16:03:50;6.35;;;1.98;;
16320;SDS011;8269;50.990;4.494;2022-09-09T16:06:17;5.85;;;2.00;;
16320;SDS011;8269;50.990;4.494;2022-09-09T16:08:46;5.97;;;2.55;;
16320;SDS011;8269;50.990;4.494;2022-09-09T16:11:18;6.85;;;2.42;;
16320;SDS011;8269;50.990;4.494;2022-09-09T16:13:46;7.65;;;2.63;;
16320;SDS011;8269;50.990;4.494;2022-09-09T16:16:14;12.82;;;3.78;;
16320;SDS011;8269;50.990;4.494;2022-09-09T16:18:44;8.25;;;2.53;;
16320;SDS011;8269;50.990;4.494;2022-09-09T16:21:15;5.63;;;2.80;;
16320;SDS011;8269;50.990;4.494;2022-09-09T16:23:43;7.78;;;2.67;;
16320;SDS011;8269;50.990;4.494;2022-09-09T16:26:12;5.43;;;2.55;;
16320;SDS011;8269;50.990;4.494;2022-09-09T16:28:40;4.97;;;2.78;;
16320;SDS011;8269;50.990;4.494;2022-09-09T16:31:08;6.32;;;2.42;;
16320;SDS011;8269;50.990;4.494;2022-09-09T16:33:36;7.97;;;2.88;;
16320;SDS011;8269;50.990;4.494;2022-09-09T16:36:06;5.47;;;2.65;;
16320;SDS011;8269;50.990;4.494;2022-09-09T16:38:42;7.28;;;2.58;;
16320;SDS011;8269;50.990;4.494;2022-09-09T16:41:09;7.20;;;2.47;;
16320;SDS011;8269;50.990;4.494;2022-09-09T16:43:36;5.97;;;2.90;;
16320;SDS011;8269;50.990;4.494;2022-09-09T16:46:03;5.28;;;2.08;;
16320;SDS011;8269;50.990;4.494;2022-09-09T16:48:37;4.00;;;1.85;;
16320;SDS011;8269;50.990;4.494;2022-09-09T16:51:07;5.72;;;1.92;;
16320;SDS011;8269;50.990;4.494;2022-09-09T16:53:36;6.00;;;2.28;;
16320;SDS011;8269;50.990;4.494;2022-09-09T16:56:08;3.97;;;1.85;;
16320;SDS011;8269;50.990;4.494;2022-09-09T16:58:35;5.20;;;2.20;;
16320;SDS011;8269;50.990;4.494;2022-09-09T17:01:02;5.70;;;2.20;;
16320;SDS011;8269;50.990;4.494;2022-09-09T17:03:28;8.18;;;2.35;;
16320;SDS011;8269;50.990;4.494;2022-09-09T17:05:58;4.82;;;2.00;;
16320;SDS011;8269;50.990;4.494;2022-09-09T17:08:30;5.00;;;1.80;;
16320;SDS011;8269;50.990;4.494;2022-09-09T17:10:56;2.65;;;1.58;;
16320;SDS011;8269;50.990;4.494;2022-09-09T17:13:23;4.00;;;1.77;;
16320;SDS011;8269;50.990;4.494;2022-09-09T17:15:50;5.35;;;1.80;;
16320;SDS011;8269;50.990;4.494;2022-09-09T17:18:15;5.60;;;2.00;;
16320;SDS011;8269;50.990;4.494;2022-09-09T17:20:42;5.45;;;2.30;;
16320;SDS011;8269;50.990;4.494;2022-09-09T17:23:08;3.70;;;2.10;;
16320;SDS011;8269;50.990;4.494;2022-09-09T17:25:36;6.25;;;2.15;;
16320;SDS011;8269;50.990;4.494;2022-09-09T17:28:03;5.57;;;2.03;;
16320;SDS011;8269;50.990;4.494;2022-09-09T17:30:38;5.80;;;2.10;;
16320;SDS011;8269;50.990;4.494;2022-09-09T17:33:03;4.55;;;1.73;;
16320;SDS011;8269;50.990;4.494;2022-09-09T17:35:30;5.93;;;1.90;;
16320;SDS011;8269;50.990;4.494;2022-09-09T17:37:56;5.60;;;1.60;;
16320;SDS011;8269;50.990;4.494;2022-09-09T17:40:22;4.65;;;1.70;;
16320;SDS011;8269;50.990;4.494;2022-09-09T17:42:47;4.80;;;1.92;;
16320;SDS011;8269;50.990;4.494;2022-09-09T17:45:13;7.32;;;1.77;;
16320;SDS011;8269;50.990;4.494;2022-09-09T17:47:39;5.15;;;1.63;;
16320;SDS011;8269;50.990;4.494;2022-09-09T17:50:08;7.28;;;1.67;;
16320;SDS011;8269;50.990;4.494;2022-09-09T17:52:38;3.35;;;1.50;;